createdAt,value
2019-02-28T00:02:28.732Z,70.40
2019-02-28T00:04:59.526Z,70.50
2019-02-28T00:07:30.280Z,70.50
2019-02-28T00:10:01.094Z,70.50
2019-02-28T00:12:33.429Z,70.90
2019-02-28T00:15:04.311Z,70.50
2019-02-28T00:17:35.255Z,70.80
2019-02-28T00:20:06.556Z,71.40
2019-02-28T00:25:18.994Z,70.70
2019-02-28T00:27:52.669Z,70.90
2019-02-28T00:30:22.231Z,71.40
2019-02-28T00:32:52.888Z,71.30
2019-02-28T00:35:23.648Z,71.00
2019-02-28T00:37:56.672Z,71.00
2019-02-28T00:40:27.128Z,71.00
2019-02-28T00:42:57.869Z,71.70
2019-02-28T00:45:28.691Z,71.10
2019-02-28T00:47:59.435Z,70.90
2019-02-28T00:50:30.243Z,70.50
2019-02-28T00:53:00.988Z,70.40
2019-02-28T00:55:32.086Z,70.60
2019-02-28T00:58:02.780Z,70.50
2019-02-28T01:00:37.204Z,70.20
2019-02-28T01:03:06.094Z,69.60
2019-02-28T01:05:37.305Z,69.50
2019-02-28T01:08:08.077Z,69.20
2019-02-28T01:10:39.266Z,68.70
2019-02-28T01:13:10.748Z,68.50
2019-02-28T01:15:44.889Z,67.80
2019-02-28T01:18:13.764Z,68.20
2019-02-28T01:20:47.538Z,68.10
2019-02-28T01:23:16.994Z,68.10
2019-02-28T01:25:47.778Z,68.30
2019-02-28T01:28:18.469Z,68.10
2019-02-28T01:30:49.267Z,68.30
2019-02-28T01:33:24.597Z,68.20
2019-02-28T01:35:52.548Z,68.20
2019-02-28T01:38:24.216Z,68.20
2019-02-28T01:40:55.974Z,68.00
2019-02-28T01:43:28.801Z,68.70
2019-02-28T01:45:59.381Z,68.80
2019-02-28T01:48:30.158Z,68.80
2019-02-28T01:51:01.733Z,69.10
2019-02-28T01:53:32.630Z,69.40
2019-02-28T01:56:03.444Z,70.00
2019-02-28T01:58:34.187Z,69.60
2019-02-28T02:01:04.784Z,69.60
2019-02-28T02:03:35.573Z,70.00
2019-02-28T02:06:06.381Z,70.70
2019-02-28T02:08:37.804Z,70.30
2019-02-28T02:11:09.348Z,70.70
2019-02-28T02:13:39.913Z,70.50
2019-02-28T02:16:10.737Z,70.60
2019-02-28T02:18:43.350Z,70.60
2019-02-28T02:21:14.055Z,70.80
2019-02-28T02:23:45.008Z,70.80
2019-02-28T02:26:15.848Z,70.80
2019-02-28T02:28:46.632Z,71.20
2019-02-28T02:31:17.363Z,71.00
2019-02-28T02:33:52.494Z,71.20
2019-02-28T02:36:20.385Z,71.20
2019-02-28T02:38:51.148Z,71.50
2019-02-28T02:41:21.945Z,71.30
2019-02-28T02:43:55.040Z,71.90
2019-02-28T02:46:25.261Z,72.00
2019-02-28T02:48:55.959Z,73.00
2019-02-28T02:51:26.730Z,73.30
2019-02-28T02:53:57.405Z,72.50
2019-02-28T02:56:28.204Z,72.90
2019-02-28T02:59:01.092Z,72.90
2019-02-28T03:01:31.711Z,72.80
2019-02-28T03:04:02.485Z,72.70
2019-02-28T03:06:33.484Z,73.40
2019-02-28T03:09:04.831Z,73.10
2019-02-28T03:11:36.157Z,73.50
2019-02-28T03:14:06.874Z,73.10
2019-02-28T03:16:37.662Z,73.50
2019-02-28T03:19:08.423Z,73.20
2019-02-28T03:21:39.231Z,73.60
2019-02-28T03:24:14.609Z,73.40
2019-02-28T03:26:43.413Z,73.70
2019-02-28T03:29:14.222Z,73.80
2019-02-28T03:31:55.222Z,73.60
2019-02-28T03:34:17.527Z,73.70
2019-02-28T03:36:55.228Z,75.00
2019-02-28T03:39:24.038Z,74.80
2019-02-28T03:41:54.268Z,75.50
2019-02-28T03:44:25.177Z,75.60
2019-02-28T03:46:56.275Z,76.70
2019-02-28T03:49:27.012Z,76.70
2019-02-28T03:52:05.428Z,77.70
2019-02-28T03:54:30.358Z,77.90
2019-02-28T03:57:01.250Z,77.80
2019-02-28T03:59:31.996Z,78.50
2019-02-28T04:02:02.823Z,78.10
2019-02-28T04:04:33.574Z,78.40
2019-02-28T04:07:04.425Z,78.60
2019-02-28T04:09:35.361Z,78.20
2019-02-28T04:12:08.689Z,78.30
2019-02-28T04:14:38.552Z,78.90
2019-02-28T04:17:09.388Z,79.00
2019-02-28T04:19:40.044Z,78.80
2019-02-28T04:22:10.874Z,78.60
2019-02-28T04:24:46.291Z,77.60
2019-02-28T04:27:14.242Z,78.60
2019-02-28T04:29:44.947Z,79.50
2019-02-28T04:32:15.818Z,78.60
2019-02-28T04:39:49.587Z,77.90
2019-02-28T04:42:20.394Z,79.80
2019-02-28T04:44:51.930Z,80.30
2019-02-28T04:47:23.376Z,80.10
2019-02-28T04:49:56.911Z,79.60
2019-02-28T04:52:26.569Z,80.50
2019-02-28T04:54:59.390Z,80.80
2019-02-28T04:57:29.572Z,81.30
2019-02-28T05:00:00.398Z,81.50
2019-02-28T05:02:31.277Z,81.30
2019-02-28T05:05:02.044Z,82.30
2019-02-28T05:07:32.958Z,82.90
2019-02-28T05:10:03.786Z,82.60
2019-02-28T05:12:36.302Z,82.90
2019-02-28T05:15:07.450Z,82.90
2019-02-28T05:17:38.320Z,81.50
2019-02-28T05:20:10.961Z,81.90
2019-02-28T05:22:42.740Z,82.00
2019-02-28T05:25:17.318Z,82.90
2019-02-28T05:27:45.856Z,83.40
2019-02-28T05:30:19.561Z,83.00
2019-02-28T05:32:48.849Z,83.60
2019-02-28T05:35:25.486Z,83.50
2019-02-28T05:37:52.295Z,84.70
2019-02-28T05:40:22.969Z,85.60
2019-02-28T05:42:54.727Z,85.50
2019-02-28T05:45:26.156Z,84.80
2019-02-28T05:47:57.068Z,85.10
2019-02-28T05:50:27.824Z,85.20
2019-02-28T05:52:58.612Z,85.80
2019-02-28T05:55:29.496Z,85.50
2019-02-28T05:58:00.488Z,85.70
2019-02-28T06:00:33.466Z,85.40
2019-02-28T06:03:03.608Z,86.00
2019-02-28T06:05:34.404Z,85.90
2019-02-28T06:08:05.048Z,85.50
2019-02-28T06:10:35.800Z,85.80
2019-02-28T06:13:06.649Z,84.20
2019-02-28T06:15:37.938Z,85.30
2019-02-28T06:18:08.905Z,85.30
2019-02-28T06:20:39.624Z,84.80
2019-02-28T06:23:10.472Z,85.80
2019-02-28T06:25:41.157Z,86.30
2019-02-28T06:28:12.074Z,84.60
2019-02-28T06:30:42.844Z,85.60
2019-02-28T06:33:13.542Z,85.40
2019-02-28T06:35:44.312Z,85.90
2019-02-28T06:38:16.245Z,85.90
2019-02-28T06:40:47.612Z,86.20
2019-02-28T06:43:19.487Z,86.10
2019-02-28T06:45:50.444Z,86.30
2019-02-28T06:48:25.915Z,85.80
2019-02-28T06:50:53.725Z,86.20
2019-02-28T06:53:24.519Z,86.20
2019-02-28T06:55:55.293Z,85.80
2019-02-28T06:58:26.285Z,86.00
2019-02-28T07:00:57.057Z,85.60
2019-02-28T07:03:28.990Z,85.50
2019-02-28T07:06:01.039Z,84.80
2019-02-28T07:08:32.185Z,84.10
2019-02-28T07:11:02.876Z,83.60
2019-02-28T07:13:38.993Z,84.20
2019-02-28T07:16:06.152Z,83.40
2019-02-28T07:18:37.076Z,82.60
2019-02-28T07:21:08.617Z,82.30
2019-02-28T07:23:40.389Z,82.00
2019-02-28T07:26:11.173Z,81.90
2019-02-28T07:28:41.970Z,81.30
2019-02-28T07:31:12.830Z,82.10
2019-02-28T07:33:44.582Z,81.30
2019-02-28T07:36:16.057Z,80.90
2019-02-28T07:38:46.843Z,80.50
2019-02-28T07:41:17.600Z,80.00
2019-02-28T07:43:48.303Z,79.90
2019-02-28T07:46:19.996Z,79.60
2019-02-28T07:48:50.808Z,79.30
2019-02-28T07:51:22.322Z,79.40
2019-02-28T07:53:53.899Z,78.00
2019-02-28T07:56:24.642Z,77.90
2019-02-28T07:58:55.467Z,77.60
2019-02-28T08:01:27.729Z,76.90
2019-02-28T08:03:58.864Z,76.50
2019-02-28T08:06:29.685Z,75.80
2019-02-28T08:09:01.745Z,75.20
2019-02-28T08:11:34.691Z,75.30
2019-02-28T08:14:05.613Z,75.20
2019-02-28T08:16:36.361Z,76.00
2019-02-28T08:19:07.269Z,74.90
2019-02-28T08:21:43.933Z,74.90
2019-02-28T08:24:10.679Z,73.80
2019-02-28T08:26:43.572Z,74.40
2019-02-28T08:29:14.092Z,74.00
2019-02-28T08:31:44.892Z,73.00
2019-02-28T08:34:15.748Z,74.20
2019-02-28T08:36:46.959Z,73.80
2019-02-28T08:39:18.257Z,72.60
2019-02-28T08:41:49.651Z,72.90
2019-02-28T08:44:23.789Z,73.80
2019-02-28T08:46:53.070Z,72.20
2019-02-28T08:49:24.068Z,72.20
2019-02-28T08:51:54.804Z,72.00
2019-02-28T08:54:27.253Z,71.10
2019-02-28T08:56:59.441Z,71.20
2019-02-28T08:59:30.249Z,70.90
2019-02-28T09:02:01.036Z,69.80
2019-02-28T09:04:40.748Z,69.30
2019-02-28T09:07:04.243Z,69.00
2019-02-28T09:09:35.350Z,68.50
2019-02-28T09:12:06.203Z,68.60
2019-02-28T09:14:36.993Z,69.80
2019-02-28T09:17:07.858Z,69.20
2019-02-28T09:19:38.674Z,69.00
2019-02-28T09:22:09.357Z,69.00
2019-02-28T09:24:40.278Z,68.10
2019-02-28T09:27:12.262Z,67.40
2019-02-28T09:29:43.153Z,66.20
2019-02-28T09:32:14.434Z,66.90
2019-02-28T09:34:45.449Z,65.50
2019-02-28T09:37:16.189Z,66.00
2019-02-28T09:39:47.038Z,66.80
2019-02-28T09:42:17.885Z,66.30
2019-02-28T09:44:48.967Z,65.10
2019-02-28T09:47:19.630Z,65.60
2019-02-28T09:49:50.487Z,65.10
2019-02-28T09:52:22.774Z,64.30
2019-02-28T09:54:56.355Z,63.30
2019-02-28T09:57:26.781Z,62.50
2019-02-28T09:59:57.843Z,61.90
2019-02-28T10:02:30.000Z,61.00
2019-02-28T10:05:03.001Z,61.80
2019-02-28T10:07:33.705Z,60.50
2019-02-28T10:10:04.406Z,61.40
2019-02-28T10:12:35.105Z,60.10
2019-02-28T10:15:07.435Z,61.40
2019-02-28T10:17:38.399Z,61.40
2019-02-28T10:20:12.059Z,62.50
2019-02-28T10:22:44.364Z,62.40
2019-02-28T10:25:16.175Z,62.00
2019-02-28T10:27:46.749Z,62.10
2019-02-28T10:30:28.223Z,61.60
2019-02-28T10:32:51.628Z,60.70
2019-02-28T10:35:22.382Z,60.70
2019-02-28T10:37:57.446Z,60.00
2019-02-28T10:40:26.016Z,61.00
2019-02-28T10:42:56.855Z,59.90
2019-02-28T10:45:28.206Z,60.50
2019-02-28T10:48:02.746Z,61.50
2019-02-28T10:50:33.379Z,62.70
2019-02-28T10:53:05.723Z,61.80
2019-02-28T10:55:36.517Z,61.50
2019-02-28T10:58:07.312Z,61.60
2019-02-28T11:00:40.817Z,62.00
2019-02-28T11:03:11.627Z,61.90
2019-02-28T11:05:43.311Z,63.00
2019-02-28T11:08:16.641Z,62.80
2019-02-28T11:10:47.007Z,63.40
2019-02-28T11:13:19.229Z,63.80
2019-02-28T11:15:50.188Z,63.10
2019-02-28T11:18:20.863Z,64.20
2019-02-28T11:20:51.666Z,64.70
2019-02-28T11:23:22.715Z,63.00
2019-02-28T11:25:53.653Z,61.50
2019-02-28T11:28:27.932Z,60.70
2019-02-28T11:30:57.005Z,60.10
2019-02-28T11:33:27.835Z,60.70
2019-02-28T11:35:59.409Z,61.30
2019-02-28T11:38:30.347Z,62.70
2019-02-28T11:41:01.341Z,63.20
2019-02-28T11:43:37.552Z,63.30
2019-02-28T11:46:04.734Z,63.40
2019-02-28T11:48:35.624Z,64.10
2019-02-28T11:51:06.408Z,64.40
2019-02-28T11:53:40.321Z,64.60
2019-02-28T11:56:09.826Z,64.70
2019-02-28T11:58:40.795Z,65.10
2019-02-28T12:01:11.709Z,63.90
2019-02-28T12:03:42.642Z,63.50
2019-02-28T12:06:13.493Z,63.00
2019-02-28T12:08:45.028Z,63.10
2019-02-28T12:11:16.554Z,63.10
2019-02-28T12:13:47.443Z,62.70
2019-02-28T12:16:19.321Z,63.40
2019-02-28T12:18:50.552Z,64.20
2019-02-28T12:21:21.439Z,65.00
2019-02-28T12:23:54.333Z,64.80
2019-02-28T12:26:25.781Z,64.30
2019-02-28T12:28:56.571Z,65.40
2019-02-28T12:31:27.358Z,66.00
2019-02-28T12:33:58.239Z,66.30
2019-02-28T12:36:29.010Z,66.20
2019-02-28T12:39:02.296Z,66.10
2019-02-28T12:41:33.850Z,66.40
2019-02-28T12:44:04.434Z,66.90
2019-02-28T12:46:35.241Z,68.00
2019-02-28T12:49:06.017Z,68.90
2019-02-28T12:51:39.678Z,69.90
2019-02-28T12:54:09.453Z,71.20
2019-02-28T12:56:40.294Z,70.60
2019-02-28T12:59:13.059Z,70.60
2019-02-28T13:01:43.739Z,70.60
2019-02-28T13:04:15.555Z,70.30
2019-02-28T13:06:46.445Z,70.20
2019-02-28T13:09:17.809Z,71.00
2019-02-28T13:11:48.598Z,69.70
2019-02-28T13:14:19.290Z,70.80
2019-02-28T13:16:50.037Z,71.10
2019-02-28T13:19:21.059Z,71.80
2019-02-28T13:21:52.134Z,71.80
2019-02-28T13:24:22.924Z,72.00
2019-02-28T13:26:53.630Z,72.70
2019-02-28T13:29:24.417Z,73.30
2019-02-28T13:31:57.679Z,73.90
2019-02-28T13:34:29.279Z,74.50
2019-02-28T13:37:02.847Z,75.00
2019-02-28T13:39:32.771Z,74.30
2019-02-28T13:42:04.323Z,75.00
2019-02-28T13:44:36.453Z,74.30
2019-02-28T13:47:09.674Z,74.40
2019-02-28T13:49:40.208Z,74.90
2019-02-28T13:52:14.984Z,75.10
2019-02-28T13:54:43.746Z,75.20
2019-02-28T13:57:14.910Z,75.40
2019-02-28T13:59:45.715Z,74.90
2019-02-28T14:02:16.501Z,74.50
2019-02-28T14:04:47.376Z,74.70
2019-02-28T14:07:18.134Z,75.20
2019-02-28T14:09:48.925Z,75.10
2019-02-28T14:12:20.757Z,76.10
2019-02-28T14:14:52.539Z,77.40
2019-02-28T14:17:23.333Z,77.10
2019-02-28T14:19:54.133Z,76.40
2019-02-28T14:22:25.036Z,76.60
2019-02-28T14:24:55.789Z,76.20
2019-02-28T14:27:27.749Z,76.00
2019-02-28T14:29:58.576Z,75.70
2019-02-28T14:32:29.398Z,76.90
2019-02-28T14:35:00.818Z,77.60
2019-02-28T14:37:32.104Z,79.30
2019-02-28T14:40:02.944Z,79.10
2019-02-28T14:42:33.652Z,78.80
2019-02-28T14:45:07.188Z,80.40
2019-02-28T14:47:37.209Z,81.10
2019-02-28T14:50:08.921Z,80.70
2019-02-28T14:52:40.422Z,80.70
2019-02-28T14:55:13.323Z,81.10
2019-02-28T14:57:44.169Z,80.80
2019-02-28T15:00:16.694Z,81.00
2019-02-28T15:02:47.745Z,81.60
2019-02-28T15:05:20.446Z,81.70
2019-02-28T15:07:51.002Z,81.60
2019-02-28T15:10:21.790Z,82.20
2019-02-28T15:12:55.317Z,82.30
2019-02-28T15:15:26.300Z,83.30
2019-02-28T15:17:57.219Z,83.20
2019-02-28T15:20:31.748Z,83.30
2019-02-28T15:23:00.735Z,83.00
2019-02-28T15:25:31.507Z,83.20
2019-02-28T15:28:02.330Z,83.30
2019-02-28T15:30:34.845Z,83.60
2019-02-28T15:33:05.685Z,84.00
2019-02-28T15:35:36.386Z,83.70
2019-02-28T15:38:09.104Z,84.40
2019-02-28T15:40:40.653Z,83.80
2019-02-28T15:43:17.008Z,84.00
2019-02-28T15:45:44.136Z,83.30
2019-02-28T15:48:14.932Z,82.60
2019-02-28T15:50:51.407Z,83.30
2019-02-28T15:53:18.352Z,83.50
2019-02-28T15:55:49.119Z,83.40
2019-02-28T15:58:20.172Z,83.60
2019-02-28T16:00:53.688Z,83.50
2019-02-28T16:03:23.650Z,83.80
2019-02-28T16:05:56.220Z,83.80
2019-02-28T16:08:28.317Z,84.20
2019-02-28T16:10:59.368Z,84.00
2019-02-28T16:13:30.272Z,85.10
2019-02-28T16:16:01.210Z,84.10
2019-02-28T16:18:32.141Z,84.60
2019-02-28T16:21:03.495Z,84.80
2019-02-28T16:23:36.450Z,84.50
2019-02-28T16:26:08.164Z,84.50
2019-02-28T16:28:39.475Z,84.30
2019-02-28T16:31:11.462Z,84.40
2019-02-28T16:33:42.369Z,84.60
2019-02-28T16:36:12.936Z,84.40
2019-02-28T16:38:45.069Z,84.70
2019-02-28T16:41:17.142Z,85.10
2019-02-28T16:43:47.992Z,84.40
2019-02-28T16:46:18.769Z,84.70
2019-02-28T16:48:49.736Z,86.10
2019-02-28T16:51:20.520Z,85.00
2019-02-28T16:53:53.173Z,85.20
2019-02-28T16:56:23.935Z,85.80
2019-02-28T16:58:57.277Z,85.70
2019-02-28T17:01:27.001Z,85.30
2019-02-28T17:04:00.321Z,85.30
2019-02-28T17:06:32.595Z,85.30
2019-02-28T17:09:14.869Z,85.30
2019-02-28T17:11:53.992Z,85.90
2019-02-28T17:14:24.851Z,85.80
2019-02-28T17:17:12.575Z,85.70
2019-02-28T17:19:43.497Z,85.30
2019-02-28T17:22:14.261Z,86.00
2019-02-28T17:24:46.085Z,85.90
2019-02-28T17:27:41.382Z,85.80
2019-02-28T17:30:35.688Z,84.50
2019-02-28T17:33:05.744Z,85.20
2019-02-28T17:35:37.946Z,84.60
2019-02-28T17:38:08.961Z,84.80
2019-02-28T17:40:39.697Z,84.50
2019-02-28T17:43:10.489Z,84.60
2019-02-28T17:45:41.112Z,84.30
2019-02-28T17:48:38.107Z,84.50
2019-02-28T17:51:25.657Z,84.90
2019-02-28T17:54:27.962Z,85.20
2019-02-28T17:57:35.250Z,85.60
2019-02-28T18:00:40.996Z,86.00
2019-02-28T18:04:01.607Z,85.20
2019-02-28T18:06:59.578Z,84.60
2019-02-28T18:09:56.527Z,84.00
2019-02-28T18:13:10.647Z,83.60
2019-02-28T18:15:50.436Z,83.70
2019-02-28T18:19:05.602Z,84.30
2019-02-28T18:22:16.126Z,83.60
2019-02-28T18:25:40.256Z,83.70
2019-02-28T18:28:39.142Z,83.00
2019-02-28T18:31:13.900Z,82.50
2019-02-28T18:33:52.224Z,82.20
2019-02-28T18:36:24.190Z,82.80
2019-02-28T18:38:55.072Z,83.20
2019-02-28T18:41:25.969Z,83.60
2019-02-28T18:44:00.063Z,84.40
2019-02-28T18:46:29.786Z,84.20
2019-02-28T18:49:01.649Z,85.00
2019-02-28T18:51:32.329Z,85.10
2019-02-28T18:54:03.254Z,85.20
2019-02-28T18:56:34.235Z,85.20
2019-02-28T18:59:05.133Z,85.20
2019-02-28T19:01:36.105Z,85.20
2019-02-28T19:04:06.879Z,85.30
2019-02-28T19:06:37.726Z,85.30
2019-02-28T19:09:20.004Z,84.30
2019-02-28T19:11:50.815Z,82.40
2019-02-28T19:14:22.853Z,83.10
2019-02-28T19:16:53.813Z,83.50
2019-02-28T19:19:24.618Z,83.50
2019-02-28T19:21:55.315Z,84.40
2019-02-28T19:24:26.148Z,84.10
2019-02-28T19:26:57.036Z,83.70
2019-02-28T19:29:27.763Z,85.30
2019-02-28T19:31:58.600Z,85.70
2019-02-28T19:34:29.405Z,86.90
2019-02-28T19:37:00.217Z,87.90
2019-02-28T19:39:31.288Z,87.60
2019-02-28T19:42:02.073Z,87.40
2019-02-28T19:44:32.880Z,87.50
2019-02-28T19:47:03.697Z,87.60
2019-02-28T19:49:34.308Z,88.00
2019-02-28T19:52:04.993Z,88.30
2019-02-28T19:54:35.772Z,88.80
2019-02-28T19:57:06.585Z,89.10
2019-02-28T19:59:37.363Z,89.00
2019-02-28T20:02:08.148Z,89.20
2019-02-28T20:04:38.816Z,89.70
2019-02-28T20:07:09.614Z,89.70
2019-02-28T20:09:40.589Z,88.60
2019-02-28T20:12:11.386Z,88.80
2019-02-28T20:14:42.494Z,88.50
2019-02-28T20:17:13.109Z,89.10
2019-02-28T20:19:43.995Z,88.50
2019-02-28T20:22:14.824Z,88.50
2019-02-28T20:24:45.720Z,89.20
2019-02-28T20:27:16.834Z,89.80
2019-02-28T20:29:54.926Z,90.00
2019-02-28T20:32:20.132Z,89.70
2019-02-28T20:34:50.993Z,89.30
2019-02-28T20:37:21.786Z,88.70
2019-02-28T20:39:52.588Z,89.50
2019-02-28T20:42:23.457Z,90.10
2019-02-28T20:44:54.366Z,90.30
2019-02-28T20:47:25.224Z,90.40
2019-02-28T20:49:56.006Z,90.40
2019-02-28T20:52:26.944Z,90.00
2019-02-28T20:54:57.776Z,90.00
2019-02-28T20:57:28.575Z,90.20
2019-02-28T20:59:59.483Z,90.20
2019-02-28T21:02:31.378Z,90.10
2019-02-28T21:05:02.266Z,89.40
2019-02-28T21:07:33.356Z,89.60
2019-02-28T21:10:05.356Z,89.40
2019-02-28T21:12:37.795Z,88.90
2019-02-28T21:15:09.208Z,88.40
2019-02-28T21:17:40.158Z,89.20
2019-02-28T21:20:12.279Z,89.60
2019-02-28T21:22:43.389Z,89.60
2019-02-28T21:25:14.261Z,88.20
2019-02-28T21:27:45.056Z,89.20
2019-02-28T21:30:25.249Z,88.20
2019-02-28T21:32:56.040Z,88.50
2019-02-28T21:35:26.933Z,87.50
2019-02-28T21:37:57.910Z,87.70
2019-02-28T21:40:28.608Z,87.70
2019-02-28T21:42:59.217Z,88.10
2019-02-28T21:45:30.064Z,87.70
2019-02-28T21:48:00.957Z,88.60
2019-02-28T21:50:32.034Z,88.20
2019-02-28T21:53:02.940Z,88.20
2019-02-28T21:55:33.704Z,88.00
2019-02-28T21:58:04.596Z,88.40
2019-02-28T22:00:35.383Z,88.00
2019-02-28T22:03:05.866Z,87.10
2019-02-28T22:05:36.772Z,87.30
2019-02-28T22:08:07.689Z,88.10
2019-02-28T22:10:38.501Z,88.90
2019-02-28T22:13:09.323Z,88.30
2019-02-28T22:15:39.984Z,87.80
2019-02-28T22:18:10.977Z,87.80
2019-02-28T22:20:41.780Z,87.80
2019-02-28T22:23:12.581Z,87.90
2019-02-28T22:25:43.229Z,89.00
2019-02-28T22:28:13.946Z,88.30
2019-02-28T22:33:56.108Z,87.50
2019-02-28T22:36:30.528Z,87.40
2019-02-28T22:39:01.400Z,87.40
2019-02-28T22:41:33.808Z,86.90
2019-02-28T22:44:04.497Z,87.50
2019-02-28T22:46:35.482Z,86.90
2019-02-28T22:49:06.161Z,87.10
2019-02-28T22:51:36.995Z,86.20
2019-02-28T22:54:07.748Z,85.70
2019-02-28T22:56:38.500Z,85.70
2019-02-28T22:59:09.228Z,86.40
2019-02-28T23:01:39.950Z,86.50
2019-02-28T23:04:10.861Z,87.00
2019-02-28T23:06:41.653Z,86.70
2019-02-28T23:09:12.437Z,87.30
2019-02-28T23:11:43.224Z,86.80
2019-02-28T23:14:14.018Z,86.30
2019-02-28T23:16:44.885Z,87.00
2019-02-28T23:19:15.584Z,86.50
2019-02-28T23:21:46.392Z,86.20
2019-02-28T23:24:17.266Z,86.00
2019-02-28T23:27:16.187Z,87.00
2019-02-28T23:30:00.419Z,87.10
2019-02-28T23:33:02.231Z,86.70
2019-02-28T23:35:41.112Z,86.80
2019-02-28T23:38:11.963Z,87.20
2019-02-28T23:40:42.540Z,87.40
2019-02-28T23:43:13.353Z,87.30
2019-02-28T23:45:44.049Z,87.00
2019-02-28T23:48:14.820Z,88.10
2019-02-28T23:50:45.576Z,87.40
2019-02-28T23:53:16.457Z,87.60
2019-02-28T23:55:47.357Z,86.70
2019-02-28T23:58:18.128Z,86.50
